sensor_id;sensor_type;location;lat;lon;timestamp;P1;durP1;ratioP1;P2;durP2;ratioP2
68608;SDS011;55581;46.718;7.690;2023-02-28T00:01:41;7.57;;;3.80;;
68608;SDS011;55581;46.718;7.690;2023-02-28T00:04:06;8.60;;;3.97;;
68608;SDS011;55581;46.718;7.690;2023-02-28T00:06:34;7.50;;;3.67;;
68608;SDS011;55581;46.718;7.690;2023-02-28T00:08:59;8.32;;;3.70;;
68608;SDS011;55581;46.718;7.690;2023-02-28T00:11:27;8.50;;;4.15;;
68608;SDS011;55581;46.718;7.690;2023-02-28T00:13:52;8.90;;;4.37;;
68608;SDS011;55581;46.718;7.690;2023-02-28T00:16:19;8.73;;;4.20;;
68608;SDS011;55581;46.718;7.690;2023-02-28T00:18:46;8.02;;;3.70;;
68608;SDS011;55581;46.718;7.690;2023-02-28T00:21:15;8.77;;;4.10;;
68608;SDS011;55581;46.718;7.690;2023-02-28T00:23:41;8.23;;;4.20;;
68608;SDS011;55581;46.718;7.690;2023-02-28T00:26:07;10.40;;;4.20;;
68608;SDS011;55581;46.718;7.690;2023-02-28T00:28:32;8.77;;;4.53;;
68608;SDS011;55581;46.718;7.690;2023-02-28T00:30:57;8.23;;;4.07;;
68608;SDS011;55581;46.718;7.690;2023-02-28T00:33:25;9.43;;;3.90;;
68608;SDS011;55581;46.718;7.690;2023-02-28T00:35:52;9.18;;;4.57;;
68608;SDS011;55581;46.718;7.690;2023-02-28T00:38:25;9.07;;;4.32;;
68608;SDS011;55581;46.718;7.690;2023-02-28T00:40:53;9.00;;;3.93;;
68608;SDS011;55581;46.718;7.690;2023-02-28T00:43:18;8.77;;;4.40;;
68608;SDS011;55581;46.718;7.690;2023-02-28T00:45:43;9.27;;;4.30;;
68608;SDS011;55581;46.718;7.690;2023-02-28T00:48:09;8.43;;;4.10;;
68608;SDS011;55581;46.718;7.690;2023-02-28T00:50:34;9.10;;;4.10;;
68608;SDS011;55581;46.718;7.690;2023-02-28T00:52:59;11.77;;;4.20;;
68608;SDS011;55581;46.718;7.690;2023-02-28T00:55:25;8.77;;;4.22;;
68608;SDS011;55581;46.718;7.690;2023-02-28T00:57:50;8.10;;;3.63;;
68608;SDS011;55581;46.718;7.690;2023-02-28T01:00:16;10.60;;;4.20;;
68608;SDS011;55581;46.718;7.690;2023-02-28T01:02:44;9.13;;;3.75;;
68608;SDS011;55581;46.718;7.690;2023-02-28T01:05:09;9.30;;;4.27;;
68608;SDS011;55581;46.718;7.690;2023-02-28T01:07:35;8.63;;;4.17;;
68608;SDS011;55581;46.718;7.690;2023-02-28T01:10:00;9.63;;;4.60;;
68608;SDS011;55581;46.718;7.690;2023-02-28T01:12:25;8.00;;;4.63;;
68608;SDS011;55581;46.718;7.690;2023-02-28T01:14:53;8.40;;;4.50;;
68608;SDS011;55581;46.718;7.690;2023-02-28T01:17:18;8.27;;;4.27;;
68608;SDS011;55581;46.718;7.690;2023-02-28T01:19:44;8.98;;;4.43;;
68608;SDS011;55581;46.718;7.690;2023-02-28T01:22:09;9.23;;;4.17;;
68608;SDS011;55581;46.718;7.690;2023-02-28T01:24:35;9.30;;;4.70;;
68608;SDS011;55581;46.718;7.690;2023-02-28T01:27:00;7.73;;;3.83;;
68608;SDS011;55581;46.718;7.690;2023-02-28T01:29:25;8.97;;;4.27;;
68608;SDS011;55581;46.718;7.690;2023-02-28T01:31:51;9.33;;;4.03;;
68608;SDS011;55581;46.718;7.690;2023-02-28T01:34:16;8.60;;;4.00;;
68608;SDS011;55581;46.718;7.690;2023-02-28T01:36:44;8.68;;;4.00;;
68608;SDS011;55581;46.718;7.690;2023-02-28T01:39:11;9.43;;;4.20;;
68608;SDS011;55581;46.718;7.690;2023-02-28T01:41:39;10.43;;;4.00;;
68608;SDS011;55581;46.718;7.690;2023-02-28T01:44:06;8.48;;;4.22;;
68608;SDS011;55581;46.718;7.690;2023-02-28T01:46:54;8.27;;;4.05;;
68608;SDS011;55581;46.718;7.690;2023-02-28T01:49:20;8.38;;;4.22;;
68608;SDS011;55581;46.718;7.690;2023-02-28T01:51:49;9.20;;;4.20;;
68608;SDS011;55581;46.718;7.690;2023-02-28T01:54:23;8.43;;;4.20;;
68608;SDS011;55581;46.718;7.690;2023-02-28T01:56:59;8.63;;;4.63;;
68608;SDS011;55581;46.718;7.690;2023-02-28T01:59:33;9.07;;;4.80;;
68608;SDS011;55581;46.718;7.690;2023-02-28T02:02:03;8.87;;;4.43;;
68608;SDS011;55581;46.718;7.690;2023-02-28T02:05:07;9.82;;;4.40;;
68608;SDS011;55581;46.718;7.690;2023-02-28T02:07:40;9.80;;;4.97;;
68608;SDS011;55581;46.718;7.690;2023-02-28T02:10:18;9.07;;;4.72;;
68608;SDS011;55581;46.718;7.690;2023-02-28T02:39:57;10.82;;;4.28;;
68608;SDS011;55581;46.718;7.690;2023-02-28T02:42:28;8.40;;;4.70;;
68608;SDS011;55581;46.718;7.690;2023-02-28T02:45:04;8.98;;;4.10;;
68608;SDS011;55581;46.718;7.690;2023-02-28T02:47:33;9.98;;;4.35;;
68608;SDS011;55581;46.718;7.690;2023-02-28T02:50:02;8.68;;;4.88;;
68608;SDS011;55581;46.718;7.690;2023-02-28T02:52:40;10.27;;;5.03;;
68608;SDS011;55581;46.718;7.690;2023-02-28T02:55:11;10.20;;;5.00;;
68608;SDS011;55581;46.718;7.690;2023-02-28T02:57:46;9.73;;;4.78;;
68608;SDS011;55581;46.718;7.690;2023-02-28T03:00:16;10.35;;;4.53;;
68608;SDS011;55581;46.718;7.690;2023-02-28T03:02:46;10.73;;;4.60;;
68608;SDS011;55581;46.718;7.690;2023-02-28T03:05:18;9.60;;;4.70;;
68608;SDS011;55581;46.718;7.690;2023-02-28T03:07:47;10.60;;;3.90;;
68608;SDS011;55581;46.718;7.690;2023-02-28T03:13:14;8.40;;;4.27;;
68608;SDS011;55581;46.718;7.690;2023-02-28T03:23:48;9.40;;;5.07;;
68608;SDS011;55581;46.718;7.690;2023-02-28T03:26:22;9.80;;;4.87;;
68608;SDS011;55581;46.718;7.690;2023-02-28T03:34:32;8.60;;;4.63;;
68608;SDS011;55581;46.718;7.690;2023-02-28T03:37:02;11.88;;;4.65;;
68608;SDS011;55581;46.718;7.690;2023-02-28T03:42:27;9.52;;;4.72;;
68608;SDS011;55581;46.718;7.690;2023-02-28T03:44:57;9.93;;;5.05;;
68608;SDS011;55581;46.718;7.690;2023-02-28T03:47:27;11.65;;;4.75;;
68608;SDS011;55581;46.718;7.690;2023-02-28T03:50:01;10.65;;;5.20;;
68608;SDS011;55581;46.718;7.690;2023-02-28T03:52:34;9.40;;;4.67;;
68608;SDS011;55581;46.718;7.690;2023-02-28T03:55:06;12.60;;;6.13;;
68608;SDS011;55581;46.718;7.690;2023-02-28T03:57:40;11.23;;;5.32;;
68608;SDS011;55581;46.718;7.690;2023-02-28T04:00:20;10.18;;;4.78;;
68608;SDS011;55581;46.718;7.690;2023-02-28T04:02:50;8.63;;;4.07;;
68608;SDS011;55581;46.718;7.690;2023-02-28T04:05:18;11.63;;;5.23;;
68608;SDS011;55581;46.718;7.690;2023-02-28T04:07:44;11.52;;;4.68;;
68608;SDS011;55581;46.718;7.690;2023-02-28T04:10:09;13.27;;;4.83;;
68608;SDS011;55581;46.718;7.690;2023-02-28T04:12:36;9.90;;;4.70;;
68608;SDS011;55581;46.718;7.690;2023-02-28T04:15:04;14.30;;;5.33;;
68608;SDS011;55581;46.718;7.690;2023-02-28T04:17:33;11.77;;;5.07;;
68608;SDS011;55581;46.718;7.690;2023-02-28T04:19:58;9.73;;;5.07;;
68608;SDS011;55581;46.718;7.690;2023-02-28T04:22:24;11.25;;;5.25;;
68608;SDS011;55581;46.718;7.690;2023-02-28T04:24:52;10.33;;;4.90;;
68608;SDS011;55581;46.718;7.690;2023-02-28T04:27:19;10.20;;;4.70;;
68608;SDS011;55581;46.718;7.690;2023-02-28T04:29:45;9.35;;;5.07;;
68608;SDS011;55581;46.718;7.690;2023-02-28T04:32:13;11.90;;;5.20;;
68608;SDS011;55581;46.718;7.690;2023-02-28T04:34:40;10.18;;;4.93;;
68608;SDS011;55581;46.718;7.690;2023-02-28T04:37:06;9.77;;;5.30;;
68608;SDS011;55581;46.718;7.690;2023-02-28T04:39:34;9.53;;;4.33;;
68608;SDS011;55581;46.718;7.690;2023-02-28T04:42:00;10.75;;;5.60;;
68608;SDS011;55581;46.718;7.690;2023-02-28T04:44:26;11.20;;;5.23;;
68608;SDS011;55581;46.718;7.690;2023-02-28T04:46:51;9.87;;;5.13;;
68608;SDS011;55581;46.718;7.690;2023-02-28T04:49:16;10.60;;;5.97;;
68608;SDS011;55581;46.718;7.690;2023-02-28T04:51:42;11.47;;;5.33;;
68608;SDS011;55581;46.718;7.690;2023-02-28T04:54:07;12.90;;;5.50;;
68608;SDS011;55581;46.718;7.690;2023-02-28T04:56:33;10.57;;;5.13;;
68608;SDS011;55581;46.718;7.690;2023-02-28T04:58:59;9.85;;;5.15;;
68608;SDS011;55581;46.718;7.690;2023-02-28T05:01:25;11.87;;;6.17;;
68608;SDS011;55581;46.718;7.690;2023-02-28T05:03:52;10.18;;;5.50;;
68608;SDS011;55581;46.718;7.690;2023-02-28T05:06:19;10.77;;;5.53;;
68608;SDS011;55581;46.718;7.690;2023-02-28T05:08:45;11.02;;;5.28;;
68608;SDS011;55581;46.718;7.690;2023-02-28T05:13:51;13.23;;;5.93;;
68608;SDS011;55581;46.718;7.690;2023-02-28T05:16:18;11.30;;;5.50;;
68608;SDS011;55581;46.718;7.690;2023-02-28T05:18:44;11.77;;;6.13;;
68608;SDS011;55581;46.718;7.690;2023-02-28T05:21:29;12.63;;;5.80;;
68608;SDS011;55581;46.718;7.690;2023-02-28T05:23:58;11.35;;;6.30;;
68608;SDS011;55581;46.718;7.690;2023-02-28T05:26:25;12.05;;;5.95;;
68608;SDS011;55581;46.718;7.690;2023-02-28T05:28:54;13.10;;;5.75;;
68608;SDS011;55581;46.718;7.690;2023-02-28T05:31:20;11.60;;;5.75;;
68608;SDS011;55581;46.718;7.690;2023-02-28T05:33:45;10.30;;;6.03;;
68608;SDS011;55581;46.718;7.690;2023-02-28T05:36:11;10.83;;;5.83;;
68608;SDS011;55581;46.718;7.690;2023-02-28T05:38:39;10.45;;;5.55;;
68608;SDS011;55581;46.718;7.690;2023-02-28T05:41:05;12.20;;;6.43;;
68608;SDS011;55581;46.718;7.690;2023-02-28T05:43:34;11.67;;;5.97;;
68608;SDS011;55581;46.718;7.690;2023-02-28T05:46:04;12.07;;;5.70;;
68608;SDS011;55581;46.718;7.690;2023-02-28T05:48:31;12.85;;;5.70;;
68608;SDS011;55581;46.718;7.690;2023-02-28T05:50:57;11.05;;;6.32;;
68608;SDS011;55581;46.718;7.690;2023-02-28T05:53:23;11.10;;;5.97;;
68608;SDS011;55581;46.718;7.690;2023-02-28T05:55:51;13.60;;;6.43;;
68608;SDS011;55581;46.718;7.690;2023-02-28T05:58:16;10.73;;;5.30;;
68608;SDS011;55581;46.718;7.690;2023-02-28T06:00:42;11.73;;;5.60;;
68608;SDS011;55581;46.718;7.690;2023-02-28T06:03:07;11.93;;;5.93;;
68608;SDS011;55581;46.718;7.690;2023-02-28T06:05:32;12.33;;;6.30;;
68608;SDS011;55581;46.718;7.690;2023-02-28T06:07:58;13.10;;;6.10;;
68608;SDS011;55581;46.718;7.690;2023-02-28T06:10:26;11.57;;;6.60;;
68608;SDS011;55581;46.718;7.690;2023-02-28T06:12:51;11.93;;;6.60;;
68608;SDS011;55581;46.718;7.690;2023-02-28T06:15:16;14.20;;;6.70;;
68608;SDS011;55581;46.718;7.690;2023-02-28T06:17:42;15.27;;;6.75;;
68608;SDS011;55581;46.718;7.690;2023-02-28T06:20:09;12.40;;;5.83;;
68608;SDS011;55581;46.718;7.690;2023-02-28T06:22:35;11.45;;;5.93;;
68608;SDS011;55581;46.718;7.690;2023-02-28T06:25:02;13.18;;;5.95;;
68608;SDS011;55581;46.718;7.690;2023-02-28T06:27:31;14.98;;;7.60;;
68608;SDS011;55581;46.718;7.690;2023-02-28T06:29:58;12.40;;;6.78;;
68608;SDS011;55581;46.718;7.690;2023-02-28T06:32:24;11.13;;;6.03;;
68608;SDS011;55581;46.718;7.690;2023-02-28T06:34:49;11.97;;;5.87;;
68608;SDS011;55581;46.718;7.690;2023-02-28T06:37:18;12.25;;;5.93;;
68608;SDS011;55581;46.718;7.690;2023-02-28T06:39:43;25.98;;;6.88;;
68608;SDS011;55581;46.718;7.690;2023-02-28T06:42:09;19.90;;;8.60;;
68608;SDS011;55581;46.718;7.690;2023-02-28T06:44:34;14.47;;;6.37;;
68608;SDS011;55581;46.718;7.690;2023-02-28T06:47:02;15.35;;;7.72;;
68608;SDS011;55581;46.718;7.690;2023-02-28T06:49:33;37.37;;;15.70;;
68608;SDS011;55581;46.718;7.690;2023-02-28T06:52:00;40.65;;;16.27;;
68608;SDS011;55581;46.718;7.690;2023-02-28T06:54:26;15.60;;;7.80;;
68608;SDS011;55581;46.718;7.690;2023-02-28T06:56:52;14.30;;;6.63;;
68608;SDS011;55581;46.718;7.690;2023-02-28T06:59:19;15.52;;;7.78;;
68608;SDS011;55581;46.718;7.690;2023-02-28T07:01:45;12.35;;;7.03;;
68608;SDS011;55581;46.718;7.690;2023-02-28T07:04:10;12.37;;;6.63;;
68608;SDS011;55581;46.718;7.690;2023-02-28T07:06:35;13.23;;;6.07;;
68608;SDS011;55581;46.718;7.690;2023-02-28T07:09:01;13.70;;;6.60;;
68608;SDS011;55581;46.718;7.690;2023-02-28T07:11:27;14.07;;;6.97;;
68608;SDS011;55581;46.718;7.690;2023-02-28T07:13:56;12.40;;;6.03;;
68608;SDS011;55581;46.718;7.690;2023-02-28T07:16:23;11.20;;;6.03;;
68608;SDS011;55581;46.718;7.690;2023-02-28T07:18:49;12.77;;;6.05;;
68608;SDS011;55581;46.718;7.690;2023-02-28T07:21:18;12.20;;;6.47;;
68608;SDS011;55581;46.718;7.690;2023-02-28T07:23:43;14.23;;;6.70;;
68608;SDS011;55581;46.718;7.690;2023-02-28T07:26:13;15.63;;;6.73;;
68608;SDS011;55581;46.718;7.690;2023-02-28T07:28:43;10.48;;;5.72;;
68608;SDS011;55581;46.718;7.690;2023-02-28T07:31:12;15.13;;;6.50;;
68608;SDS011;55581;46.718;7.690;2023-02-28T07:33:41;13.07;;;6.50;;
68608;SDS011;55581;46.718;7.690;2023-02-28T07:36:08;11.50;;;5.87;;
68608;SDS011;55581;46.718;7.690;2023-02-28T07:38:39;15.82;;;7.63;;
68608;SDS011;55581;46.718;7.690;2023-02-28T07:41:04;14.37;;;6.77;;
68608;SDS011;55581;46.718;7.690;2023-02-28T07:43:30;13.15;;;6.35;;
68608;SDS011;55581;46.718;7.690;2023-02-28T07:46:00;13.07;;;6.37;;
68608;SDS011;55581;46.718;7.690;2023-02-28T07:48:33;16.50;;;6.25;;
68608;SDS011;55581;46.718;7.690;2023-02-28T07:50:59;13.30;;;6.07;;
68608;SDS011;55581;46.718;7.690;2023-02-28T07:53:25;13.65;;;6.82;;
68608;SDS011;55581;46.718;7.690;2023-02-28T07:55:54;14.95;;;7.10;;
68608;SDS011;55581;46.718;7.690;2023-02-28T07:58:20;12.68;;;5.85;;
68608;SDS011;55581;46.718;7.690;2023-02-28T08:00:46;16.07;;;6.57;;
68608;SDS011;55581;46.718;7.690;2023-02-28T08:03:11;13.87;;;6.80;;
68608;SDS011;55581;46.718;7.690;2023-02-28T08:05:38;10.73;;;6.40;;
68608;SDS011;55581;46.718;7.690;2023-02-28T08:08:09;12.07;;;6.20;;
68608;SDS011;55581;46.718;7.690;2023-02-28T08:10:34;15.70;;;6.75;;
68608;SDS011;55581;46.718;7.690;2023-02-28T08:13:03;14.07;;;6.53;;
68608;SDS011;55581;46.718;7.690;2023-02-28T08:15:28;11.55;;;6.32;;
68608;SDS011;55581;46.718;7.690;2023-02-28T08:17:57;13.80;;;7.28;;
68608;SDS011;55581;46.718;7.690;2023-02-28T08:20:23;11.90;;;6.57;;
68608;SDS011;55581;46.718;7.690;2023-02-28T08:22:49;13.70;;;6.90;;
68608;SDS011;55581;46.718;7.690;2023-02-28T08:25:15;12.32;;;6.70;;
68608;SDS011;55581;46.718;7.690;2023-02-28T08:27:41;10.97;;;6.20;;
68608;SDS011;55581;46.718;7.690;2023-02-28T08:30:10;16.85;;;7.53;;
68608;SDS011;55581;46.718;7.690;2023-02-28T08:32:39;13.07;;;5.90;;
68608;SDS011;55581;46.718;7.690;2023-02-28T08:35:04;14.10;;;6.25;;
68608;SDS011;55581;46.718;7.690;2023-02-28T08:37:30;13.63;;;7.10;;
68608;SDS011;55581;46.718;7.690;2023-02-28T08:39:56;12.85;;;6.82;;
68608;SDS011;55581;46.718;7.690;2023-02-28T08:42:22;14.17;;;6.80;;
68608;SDS011;55581;46.718;7.690;2023-02-28T08:44:48;14.00;;;7.13;;
68608;SDS011;55581;46.718;7.690;2023-02-28T08:47:14;14.40;;;6.80;;
68608;SDS011;55581;46.718;7.690;2023-02-28T08:49:39;17.65;;;7.68;;
68608;SDS011;55581;46.718;7.690;2023-02-28T08:52:05;14.13;;;7.47;;
68608;SDS011;55581;46.718;7.690;2023-02-28T08:54:33;13.43;;;7.75;;
68608;SDS011;55581;46.718;7.690;2023-02-28T08:56:59;12.82;;;7.00;;
68608;SDS011;55581;46.718;7.690;2023-02-28T08:59:25;14.57;;;7.37;;
68608;SDS011;55581;46.718;7.690;2023-02-28T09:01:50;13.07;;;7.30;;
68608;SDS011;55581;46.718;7.690;2023-02-28T09:04:18;15.18;;;6.88;;
68608;SDS011;55581;46.718;7.690;2023-02-28T09:06:45;13.63;;;6.45;;
68608;SDS011;55581;46.718;7.690;2023-02-28T09:09:11;16.43;;;7.80;;
68608;SDS011;55581;46.718;7.690;2023-02-28T09:11:38;11.82;;;6.70;;
68608;SDS011;55581;46.718;7.690;2023-02-28T09:14:06;15.20;;;7.43;;
68608;SDS011;55581;46.718;7.690;2023-02-28T09:16:32;16.10;;;7.57;;
68608;SDS011;55581;46.718;7.690;2023-02-28T09:18:58;14.77;;;6.88;;
68608;SDS011;55581;46.718;7.690;2023-02-28T09:21:24;12.20;;;7.00;;
68608;SDS011;55581;46.718;7.690;2023-02-28T09:23:50;12.07;;;6.67;;
68608;SDS011;55581;46.718;7.690;2023-02-28T09:26:17;12.93;;;7.05;;
68608;SDS011;55581;46.718;7.690;2023-02-28T09:28:50;14.70;;;7.43;;
68608;SDS011;55581;46.718;7.690;2023-02-28T09:31:17;13.73;;;7.55;;
68608;SDS011;55581;46.718;7.690;2023-02-28T09:33:48;10.65;;;6.13;;
68608;SDS011;55581;46.718;7.690;2023-02-28T09:36:15;12.40;;;6.23;;
68608;SDS011;55581;46.718;7.690;2023-02-28T09:38:42;13.32;;;6.57;;
68608;SDS011;55581;46.718;7.690;2023-02-28T09:41:12;14.30;;;6.87;;
68608;SDS011;55581;46.718;7.690;2023-02-28T09:43:43;13.73;;;6.60;;
68608;SDS011;55581;46.718;7.690;2023-02-28T09:46:16;13.20;;;6.90;;
68608;SDS011;55581;46.718;7.690;2023-02-28T09:48:50;14.88;;;8.20;;
68608;SDS011;55581;46.718;7.690;2023-02-28T09:54:09;12.23;;;7.15;;
68608;SDS011;55581;46.718;7.690;2023-02-28T09:56:43;12.50;;;6.20;;
68608;SDS011;55581;46.718;7.690;2023-02-28T10:04:41;12.07;;;6.97;;
68608;SDS011;55581;46.718;7.690;2023-02-28T10:10:02;12.52;;;7.03;;
68608;SDS011;55581;46.718;7.690;2023-02-28T10:12:33;12.83;;;6.93;;
68608;SDS011;55581;46.718;7.690;2023-02-28T10:15:04;14.32;;;7.00;;
68608;SDS011;55581;46.718;7.690;2023-02-28T10:17:35;11.75;;;7.00;;
68608;SDS011;55581;46.718;7.690;2023-02-28T10:20:17;10.90;;;6.18;;
68608;SDS011;55581;46.718;7.690;2023-02-28T10:23:08;13.15;;;6.18;;
68608;SDS011;55581;46.718;7.690;2023-02-28T10:25:35;13.80;;;6.80;;
68608;SDS011;55581;46.718;7.690;2023-02-28T10:28:12;12.68;;;7.00;;
68608;SDS011;55581;46.718;7.690;2023-02-28T10:30:40;12.57;;;6.82;;
68608;SDS011;55581;46.718;7.690;2023-02-28T10:33:24;11.63;;;6.22;;
68608;SDS011;55581;46.718;7.690;2023-02-28T10:35:54;11.02;;;6.10;;
68608;SDS011;55581;46.718;7.690;2023-02-28T10:38:32;12.20;;;6.30;;
68608;SDS011;55581;46.718;7.690;2023-02-28T10:41:26;12.40;;;6.28;;
68608;SDS011;55581;46.718;7.690;2023-02-28T10:44:11;13.68;;;6.75;;
68608;SDS011;55581;46.718;7.690;2023-02-28T10:46:40;11.93;;;6.60;;
68608;SDS011;55581;46.718;7.690;2023-02-28T10:49:11;12.85;;;7.32;;
68608;SDS011;55581;46.718;7.690;2023-02-28T10:51:39;11.93;;;6.23;;
68608;SDS011;55581;46.718;7.690;2023-02-28T10:54:06;12.23;;;6.45;;
68608;SDS011;55581;46.718;7.690;2023-02-28T10:56:40;12.40;;;7.30;;
68608;SDS011;55581;46.718;7.690;2023-02-28T10:59:25;11.85;;;6.53;;
68608;SDS011;55581;46.718;7.690;2023-02-28T11:01:55;11.85;;;6.40;;
68608;SDS011;55581;46.718;7.690;2023-02-28T11:07:17;11.82;;;6.75;;
68608;SDS011;55581;46.718;7.690;2023-02-28T11:09:47;10.93;;;6.25;;
68608;SDS011;55581;46.718;7.690;2023-02-28T11:12:22;12.63;;;6.03;;
68608;SDS011;55581;46.718;7.690;2023-02-28T11:14:55;12.35;;;6.63;;
68608;SDS011;55581;46.718;7.690;2023-02-28T11:17:28;11.60;;;6.47;;
68608;SDS011;55581;46.718;7.690;2023-02-28T11:19:59;12.82;;;7.13;;
68608;SDS011;55581;46.718;7.690;2023-02-28T11:22:32;9.88;;;5.10;;
68608;SDS011;55581;46.718;7.690;2023-02-28T11:25:06;10.77;;;6.10;;
68608;SDS011;55581;46.718;7.690;2023-02-28T11:27:54;13.35;;;6.97;;
68608;SDS011;55581;46.718;7.690;2023-02-28T11:30:30;11.03;;;5.70;;
68608;SDS011;55581;46.718;7.690;2023-02-28T11:33:21;11.30;;;6.75;;
68608;SDS011;55581;46.718;7.690;2023-02-28T11:35:57;12.38;;;7.30;;
68608;SDS011;55581;46.718;7.690;2023-02-28T11:38:26;11.35;;;6.72;;
68608;SDS011;55581;46.718;7.690;2023-02-28T11:43:44;12.23;;;6.80;;
68608;SDS011;55581;46.718;7.690;2023-02-28T11:46:37;12.80;;;6.07;;
68608;SDS011;55581;46.718;7.690;2023-02-28T11:55:42;13.60;;;7.05;;
68608;SDS011;55581;46.718;7.690;2023-02-28T12:01:18;11.65;;;6.63;;
68608;SDS011;55581;46.718;7.690;2023-02-28T12:07:11;12.30;;;6.68;;
68608;SDS011;55581;46.718;7.690;2023-02-28T12:15:51;13.70;;;6.68;;
68608;SDS011;55581;46.718;7.690;2023-02-28T12:26:47;13.37;;;7.30;;
68608;SDS011;55581;46.718;7.690;2023-02-28T12:29:23;13.18;;;7.22;;
68608;SDS011;55581;46.718;7.690;2023-02-28T12:34:53;13.43;;;7.40;;
68608;SDS011;55581;46.718;7.690;2023-02-28T12:37:30;13.45;;;7.20;;
68608;SDS011;55581;46.718;7.690;2023-02-28T12:40:05;12.17;;;7.03;;
68608;SDS011;55581;46.718;7.690;2023-02-28T12:42:41;11.27;;;7.05;;
68608;SDS011;55581;46.718;7.690;2023-02-28T12:47:49;12.60;;;7.00;;
68608;SDS011;55581;46.718;7.690;2023-02-28T12:50:22;16.98;;;7.45;;
68608;SDS011;55581;46.718;7.690;2023-02-28T12:55:56;11.80;;;6.80;;
68608;SDS011;55581;46.718;7.690;2023-02-28T13:01:11;13.55;;;7.15;;
68608;SDS011;55581;46.718;7.690;2023-02-28T13:09:39;11.73;;;6.60;;
68608;SDS011;55581;46.718;7.690;2023-02-28T13:12:14;13.23;;;6.90;;
68608;SDS011;55581;46.718;7.690;2023-02-28T13:14:41;13.18;;;7.03;;
68608;SDS011;55581;46.718;7.690;2023-02-28T13:19:37;14.67;;;7.67;;
68608;SDS011;55581;46.718;7.690;2023-02-28T13:22:15;13.68;;;7.28;;
68608;SDS011;55581;46.718;7.690;2023-02-28T13:25:00;12.38;;;6.97;;
68608;SDS011;55581;46.718;7.690;2023-02-28T13:27:36;12.63;;;7.27;;
68608;SDS011;55581;46.718;7.690;2023-02-28T13:49:18;14.98;;;7.15;;
68608;SDS011;55581;46.718;7.690;2023-02-28T13:57:48;12.07;;;6.57;;
68608;SDS011;55581;46.718;7.690;2023-02-28T14:03:06;14.30;;;6.82;;
68608;SDS011;55581;46.718;7.690;2023-02-28T14:05:33;12.38;;;7.13;;
68608;SDS011;55581;46.718;7.690;2023-02-28T14:08:04;13.67;;;6.97;;
68608;SDS011;55581;46.718;7.690;2023-02-28T14:10:46;13.00;;;6.97;;
68608;SDS011;55581;46.718;7.690;2023-02-28T14:16:13;13.98;;;7.85;;
68608;SDS011;55581;46.718;7.690;2023-02-28T14:18:41;13.55;;;7.63;;
68608;SDS011;55581;46.718;7.690;2023-02-28T14:21:29;12.90;;;6.67;;
68608;SDS011;55581;46.718;7.690;2023-02-28T14:32:14;15.32;;;7.20;;
68608;SDS011;55581;46.718;7.690;2023-02-28T14:37:15;20.05;;;6.75;;
68608;SDS011;55581;46.718;7.690;2023-02-28T14:39:44;13.17;;;7.10;;
68608;SDS011;55581;46.718;7.690;2023-02-28T14:42:27;13.43;;;7.35;;
68608;SDS011;55581;46.718;7.690;2023-02-28T14:45:16;13.70;;;7.35;;
68608;SDS011;55581;46.718;7.690;2023-02-28T14:47:43;15.32;;;7.78;;
68608;SDS011;55581;46.718;7.690;2023-02-28T14:50:17;14.80;;;8.00;;
68608;SDS011;55581;46.718;7.690;2023-02-28T14:52:47;14.43;;;7.70;;
68608;SDS011;55581;46.718;7.690;2023-02-28T14:55:14;44.08;;;19.13;;
68608;SDS011;55581;46.718;7.690;2023-02-28T14:58:02;13.70;;;7.83;;
68608;SDS011;55581;46.718;7.690;2023-02-28T15:00:34;11.85;;;6.85;;
68608;SDS011;55581;46.718;7.690;2023-02-28T15:03:17;21.48;;;10.95;;
68608;SDS011;55581;46.718;7.690;2023-02-28T15:06:05;18.13;;;9.43;;
68608;SDS011;55581;46.718;7.690;2023-02-28T15:08:39;15.32;;;7.80;;
68608;SDS011;55581;46.718;7.690;2023-02-28T15:11:06;14.80;;;7.57;;
68608;SDS011;55581;46.718;7.690;2023-02-28T15:16:36;13.23;;;7.13;;
68608;SDS011;55581;46.718;7.690;2023-02-28T15:19:19;14.27;;;8.10;;
68608;SDS011;55581;46.718;7.690;2023-02-28T15:21:49;13.68;;;7.13;;
68608;SDS011;55581;46.718;7.690;2023-02-28T15:24:21;13.57;;;6.97;;
68608;SDS011;55581;46.718;7.690;2023-02-28T15:27:11;14.30;;;7.40;;
68608;SDS011;55581;46.718;7.690;2023-02-28T15:29:44;13.90;;;6.85;;
68608;SDS011;55581;46.718;7.690;2023-02-28T15:32:51;12.43;;;6.60;;
68608;SDS011;55581;46.718;7.690;2023-02-28T15:35:20;14.40;;;7.70;;
68608;SDS011;55581;46.718;7.690;2023-02-28T15:40:44;16.52;;;7.55;;
68608;SDS011;55581;46.718;7.690;2023-02-28T15:43:28;14.60;;;7.35;;
68608;SDS011;55581;46.718;7.690;2023-02-28T15:45:59;15.02;;;7.05;;
68608;SDS011;55581;46.718;7.690;2023-02-28T15:51:00;13.67;;;6.40;;
68608;SDS011;55581;46.718;7.690;2023-02-28T15:53:38;17.95;;;7.43;;
68608;SDS011;55581;46.718;7.690;2023-02-28T15:56:23;14.05;;;6.93;;
68608;SDS011;55581;46.718;7.690;2023-02-28T15:58:58;16.15;;;7.28;;
68608;SDS011;55581;46.718;7.690;2023-02-28T16:03:59;13.57;;;7.07;;
68608;SDS011;55581;46.718;7.690;2023-02-28T16:06:37;16.15;;;7.70;;
68608;SDS011;55581;46.718;7.690;2023-02-28T16:09:08;17.17;;;10.00;;
68608;SDS011;55581;46.718;7.690;2023-02-28T16:11:37;14.05;;;7.72;;
68608;SDS011;55581;46.718;7.690;2023-02-28T16:14:09;27.98;;;12.98;;
68608;SDS011;55581;46.718;7.690;2023-02-28T16:16:41;15.47;;;7.53;;
68608;SDS011;55581;46.718;7.690;2023-02-28T16:19:09;13.80;;;7.45;;
68608;SDS011;55581;46.718;7.690;2023-02-28T16:21:34;14.68;;;7.65;;
68608;SDS011;55581;46.718;7.690;2023-02-28T16:24:02;16.07;;;7.53;;
68608;SDS011;55581;46.718;7.690;2023-02-28T16:26:28;13.88;;;7.32;;
68608;SDS011;55581;46.718;7.690;2023-02-28T16:28:55;14.90;;;6.97;;
68608;SDS011;55581;46.718;7.690;2023-02-28T16:31:21;14.70;;;7.75;;
68608;SDS011;55581;46.718;7.690;2023-02-28T16:33:46;15.50;;;7.10;;
68608;SDS011;55581;46.718;7.690;2023-02-28T16:36:19;16.87;;;7.97;;
68608;SDS011;55581;46.718;7.690;2023-02-28T16:38:50;16.40;;;7.43;;
68608;SDS011;55581;46.718;7.690;2023-02-28T16:41:19;15.23;;;7.32;;
68608;SDS011;55581;46.718;7.690;2023-02-28T16:43:51;15.00;;;7.90;;
68608;SDS011;55581;46.718;7.690;2023-02-28T16:46:23;14.95;;;7.88;;
68608;SDS011;55581;46.718;7.690;2023-02-28T16:48:50;17.57;;;7.63;;
68608;SDS011;55581;46.718;7.690;2023-02-28T16:51:16;13.65;;;6.95;;
68608;SDS011;55581;46.718;7.690;2023-02-28T16:53:42;16.90;;;7.68;;
68608;SDS011;55581;46.718;7.690;2023-02-28T16:56:18;13.85;;;7.32;;
68608;SDS011;55581;46.718;7.690;2023-02-28T16:58:45;14.88;;;7.32;;
68608;SDS011;55581;46.718;7.690;2023-02-28T17:01:11;14.87;;;6.87;;
68608;SDS011;55581;46.718;7.690;2023-02-28T17:03:37;15.75;;;7.28;;
68608;SDS011;55581;46.718;7.690;2023-02-28T17:06:03;16.90;;;8.57;;
68608;SDS011;55581;46.718;7.690;2023-02-28T17:08:30;21.00;;;8.20;;
68608;SDS011;55581;46.718;7.690;2023-02-28T17:10:57;17.08;;;7.78;;
68608;SDS011;55581;46.718;7.690;2023-02-28T17:13:23;18.43;;;8.20;;
68608;SDS011;55581;46.718;7.690;2023-02-28T17:15:48;14.80;;;7.40;;
68608;SDS011;55581;46.718;7.690;2023-02-28T17:18:14;14.57;;;7.23;;
68608;SDS011;55581;46.718;7.690;2023-02-28T17:20:43;15.35;;;7.93;;
68608;SDS011;55581;46.718;7.690;2023-02-28T17:23:09;14.32;;;7.60;;
68608;SDS011;55581;46.718;7.690;2023-02-28T17:25:35;15.63;;;7.73;;
68608;SDS011;55581;46.718;7.690;2023-02-28T17:28:00;19.17;;;8.07;;
68608;SDS011;55581;46.718;7.690;2023-02-28T17:30:26;14.90;;;7.53;;
68608;SDS011;55581;46.718;7.690;2023-02-28T17:32:55;16.65;;;8.25;;
68608;SDS011;55581;46.718;7.690;2023-02-28T17:35:23;16.30;;;7.13;;
68608;SDS011;55581;46.718;7.690;2023-02-28T17:37:49;16.47;;;7.77;;